Dunreith, Indiana
Current Conditions -  °F | °C
As of 7:53 PM on Friday 19 Dec 2014 (Local Time) from KGEZ Reporting Station
Overcast Overcast  
Wind Chill: 31°   Ceiling: 2500
Heat Index: 31°   Visibility: 10mi
Dew Point: 24°   Wind: 3mph
Humidity: 76%   Direction: 50°NE
Pressure: 30.29"   Gusts: NA
Location:  39.8°N, 85.44°W
Report Text: KGEZ 200053Z AUTO 05003KT 10SM OVC025 M01/M04 A3029 RMK AO2 SLP265 T10061044
Loading
Personal Weather Stations






























Interactive Weather Map New forecast layout! Learn more

10-Day Weather Forecast

Advertisements
Track Severe Weather on mobile